Main page


Airports :

Liverpool, England

Liverpool John Lennon Airport

latitude: 53-20N, longitude: 002-51W, elevation: 26 m

Current weather observation

The report was made 11 minutes ago, at 17:20 UTC
Wind 12 kt from the West/Northwest
Temperature 7°C
Humidity 53%
Pressure 1033 hPa
Visibility 10 km or more
no clouds below 1500 m and no cumulonimbus

METAR: EGGP 201720Z 30012KT CAVOK 07/M02 Q1033

Time: 17:31 (17:31 UTC)


The report was made 6 hours and 31 minutes ago, at 11:00 UTC
Forecast valid from 20 at 12 UTC to 21 at 12 UTC
Wind 9 kt from the Northwest
Visibility 10 km or more
Scattered clouds at a height of 3000 ft
Probability 30%
from 21 at 02 UTC to 21 at 06 UTC
Visibility: 6000 m

TAF: EGGP 201100Z 2012/2112 32009KT 9999 SCT030 PROB30 2102/2106 6000

Weather observations and forecasts of more than 4000 airports (METAR and TAF reports).

The available stations are represented by yellow and red dots on the map.

Hover mouse over dot to see the name of the station.

Then click to see weather observations and forecasts.

To change the map : click on the green buttons with a black cross to zoom in, on the green button with a dash to zoom out, or on the green arrows for adjacent maps.